LEAS/OVD METAR and TAF weather

Enter ICAO airport designator
Station Type Date Time Source
LEAS METAR 2019/06/17 14:30 UTC NOAA

LEAS 171430Z 34005KT 320V020 9999 FEW009 SCT013 BKN015 16/14 Q1015 NOSIG


Station Type Date Time Source
LEAS Decoded METAR 2019/06/17 14:30 UTC NOAA

Asturias / Aviles, Spain (LEAS) 43-33N 006-02W 130M
Jun 17, 2019 - 10:30 AM EDT / 2019.06.17 1430 UTC
Wind: from the NNW (340 degrees) at 6 MPH (5 KT) (direction variable):0
Visibility: greater than 7 mile(s):0
Sky conditions: mostly cloudy
Temperature: 60 F (16 C)
Dew Point: 57 F (14 C)
Relative Humidity: 87%
Pressure (altimeter): 29.97 in. Hg (1015 hPa)
ob: LEAS 171430Z 34005KT 320V020 9999 FEW009 SCT013 BKN015 16/14 Q1015 NOSIG
cycle: 14

Station Type Date Time Source
LEAS TAF 2019/06/17 15:31 UTC NOAA

TAF LEAS 171400Z 1715/1815 01006KT 9999 BKN015 TX18/1815Z TN11/1804Z PROB40
TEMPO 1718/1808 3000 BR

Example: see airport list